createdAt,value
2022-11-23T00:01:26.487Z,99.62
2022-11-23T00:03:57.181Z,99.57
2022-11-23T00:06:25.608Z,99.61
2022-11-23T00:08:53.674Z,99.47
2022-11-23T00:11:22.117Z,99.22
2022-11-23T00:13:49.842Z,99.41
2022-11-23T00:16:20.058Z,99.41
2022-11-23T00:18:47.953Z,99.50
2022-11-23T00:21:16.587Z,99.35
2022-11-23T00:23:45.020Z,99.47
2022-11-23T00:26:13.361Z,99.39
2022-11-23T00:28:42.132Z,99.59
2022-11-23T00:31:11.406Z,99.58
2022-11-23T00:33:39.244Z,99.72
2022-11-23T00:36:10.425Z,99.68
2022-11-23T00:38:37.648Z,99.67
2022-11-23T00:41:08.259Z,99.96
2022-11-23T00:43:36.525Z,99.92
2022-11-23T00:46:12.540Z,99.91
2022-11-23T00:48:41.163Z,100.00
2022-11-23T00:51:10.229Z,100.00
2022-11-23T00:53:38.113Z,100.00
2022-11-23T00:56:06.533Z,100.00
2022-11-23T00:58:34.775Z,99.91
2022-11-23T01:01:06.909Z,100.00
2022-11-23T01:03:37.205Z,100.00
2022-11-23T01:06:10.132Z,100.00
2022-11-23T01:08:37.939Z,100.00
2022-11-23T01:11:07.680Z,100.00
2022-11-23T01:13:38.163Z,100.00
2022-11-23T01:16:07.650Z,100.00
2022-11-23T01:18:36.728Z,100.00
2022-11-23T01:21:03.611Z,100.00
2022-11-23T01:23:31.556Z,100.00
2022-11-23T01:26:04.575Z,99.98
2022-11-23T01:28:31.738Z,100.00
2022-11-23T01:31:15.739Z,99.95
2022-11-23T01:33:45.393Z,100.00
2022-11-23T01:36:18.269Z,100.00
2022-11-23T01:38:47.137Z,100.00
2022-11-23T01:41:35.880Z,100.00
2022-11-23T01:44:24.830Z,100.00
2022-11-23T01:46:57.666Z,100.00
2022-11-23T01:49:27.330Z,100.00
2022-11-23T01:51:59.530Z,100.00
2022-11-23T01:54:36.464Z,100.00
2022-11-23T01:57:13.748Z,100.00
2022-11-23T01:59:40.970Z,100.00
2022-11-23T02:02:07.808Z,100.00
2022-11-23T02:04:39.932Z,100.00
2022-11-23T02:07:07.194Z,100.00
2022-11-23T02:09:35.774Z,100.00
2022-11-23T02:12:02.618Z,100.00
2022-11-23T02:14:30.039Z,100.00
2022-11-23T02:16:59.940Z,100.00
2022-11-23T02:19:48.893Z,100.00
2022-11-23T02:22:25.360Z,100.00
2022-11-23T02:24:55.213Z,100.00
2022-11-23T02:27:26.293Z,100.00
2022-11-23T02:29:55.296Z,100.00
2022-11-23T02:32:24.840Z,100.00
2022-11-23T02:34:56.362Z,100.00
2022-11-23T02:37:23.620Z,100.00
2022-11-23T02:39:54.294Z,100.00
2022-11-23T02:42:21.292Z,100.00
2022-11-23T02:45:03.624Z,100.00
2022-11-23T02:47:30.994Z,100.00
2022-11-23T02:49:58.332Z,100.00
2022-11-23T02:52:25.197Z,100.00
2022-11-23T02:54:52.435Z,100.00
2022-11-23T02:57:19.257Z,100.00
2022-11-23T02:59:47.062Z,100.00
2022-11-23T03:02:13.975Z,100.00
2022-11-23T03:04:41.190Z,100.00
2022-11-23T03:07:08.120Z,100.00
2022-11-23T03:09:35.932Z,100.00
2022-11-23T03:12:03.060Z,100.00
2022-11-23T03:14:30.242Z,100.00
2022-11-23T03:17:01.159Z,100.00
2022-11-23T03:19:33.228Z,100.00
2022-11-23T03:22:00.732Z,100.00
2022-11-23T03:24:31.593Z,100.00
2022-11-23T03:27:17.885Z,100.00
2022-11-23T03:29:46.161Z,100.00
2022-11-23T03:32:18.179Z,100.00
2022-11-23T03:34:48.851Z,100.00
2022-11-23T03:37:17.559Z,100.00
2022-11-23T03:39:47.549Z,100.00
2022-11-23T03:42:33.294Z,100.00
2022-11-23T03:45:00.588Z,100.00
2022-11-23T03:47:27.380Z,100.00
2022-11-23T03:49:54.462Z,100.00
2022-11-23T03:52:21.283Z,100.00
2022-11-23T03:54:48.767Z,100.00
2022-11-23T03:57:15.986Z,100.00
2022-11-23T03:59:43.141Z,100.00
2022-11-23T04:02:10.606Z,100.00
2022-11-23T04:04:45.780Z,100.00
2022-11-23T04:07:32.643Z,100.00
2022-11-23T04:10:04.188Z,100.00
2022-11-23T04:13:09.232Z,100.00
2022-11-23T04:15:36.583Z,100.00
2022-11-23T04:18:03.776Z,100.00
2022-11-23T04:20:31.415Z,100.00
2022-11-23T04:22:58.246Z,100.00
2022-11-23T04:25:27.124Z,100.00
2022-11-23T04:27:55.175Z,100.00
2022-11-23T04:30:23.532Z,100.00
2022-11-23T04:32:53.241Z,100.00
2022-11-23T04:35:22.491Z,100.00
2022-11-23T04:37:50.859Z,100.00
2022-11-23T04:40:18.729Z,100.00
2022-11-23T04:42:57.593Z,100.00
2022-11-23T04:45:27.994Z,100.00
2022-11-23T04:47:57.898Z,100.00
2022-11-23T04:50:26.385Z,100.00
2022-11-23T04:52:55.747Z,100.00
2022-11-23T04:55:29.335Z,100.00
2022-11-23T04:57:58.260Z,100.00
2022-11-23T05:00:28.974Z,100.00
2022-11-23T05:03:01.023Z,100.00
2022-11-23T05:05:32.425Z,100.00
2022-11-23T05:08:00.297Z,100.00
2022-11-23T05:10:39.908Z,100.00
2022-11-23T05:13:06.994Z,100.00
2022-11-23T05:15:34.326Z,100.00
2022-11-23T05:18:03.882Z,100.00
2022-11-23T05:20:31.009Z,100.00
2022-11-23T05:22:58.402Z,100.00
2022-11-23T05:25:27.198Z,100.00
2022-11-23T05:28:11.412Z,100.00
2022-11-23T05:30:49.137Z,100.00
2022-11-23T05:33:16.428Z,100.00
2022-11-23T05:35:44.420Z,100.00
2022-11-23T05:38:11.515Z,100.00
2022-11-23T05:40:39.454Z,100.00
2022-11-23T05:43:24.858Z,100.00
2022-11-23T05:45:52.448Z,100.00
2022-11-23T05:48:20.999Z,100.00
2022-11-23T05:51:02.303Z,100.00
2022-11-23T05:53:35.356Z,100.00
2022-11-23T05:56:16.302Z,100.00
2022-11-23T05:58:58.319Z,100.00
2022-11-23T06:01:26.459Z,100.00
2022-11-23T06:03:57.705Z,100.00
2022-11-23T06:06:25.497Z,100.00
2022-11-23T06:08:52.365Z,100.00
2022-11-23T06:11:20.138Z,100.00
2022-11-23T06:13:48.170Z,100.00
2022-11-23T06:16:16.608Z,100.00
2022-11-23T06:18:56.795Z,100.00
2022-11-23T06:21:24.010Z,100.00
2022-11-23T06:23:51.079Z,100.00
2022-11-23T06:26:18.434Z,100.00
2022-11-23T06:28:45.793Z,100.00
2022-11-23T06:31:14.678Z,100.00
2022-11-23T06:33:41.733Z,100.00
2022-11-23T06:36:10.614Z,100.00
2022-11-23T06:38:43.531Z,100.00
2022-11-23T06:41:15.045Z,100.00
2022-11-23T06:43:42.170Z,100.00
2022-11-23T06:46:11.450Z,100.00
2022-11-23T06:48:43.884Z,100.00
2022-11-23T06:51:12.416Z,100.00
2022-11-23T06:53:39.714Z,100.00
2022-11-23T06:56:09.012Z,100.00
2022-11-23T06:58:36.264Z,100.00
2022-11-23T07:01:08.920Z,100.00
2022-11-23T07:03:49.347Z,100.00
2022-11-23T07:06:29.259Z,100.00
2022-11-23T07:08:59.780Z,100.00
2022-11-23T07:11:43.121Z,100.00
2022-11-23T07:14:12.118Z,100.00
2022-11-23T07:16:43.046Z,100.00
2022-11-23T07:19:11.534Z,100.00
2022-11-23T07:21:40.090Z,99.74
2022-11-23T07:24:07.135Z,99.44
2022-11-23T07:26:35.130Z,99.42
2022-11-23T07:29:04.038Z,99.35
2022-11-23T07:31:31.603Z,99.28
2022-11-23T07:33:58.631Z,99.03
2022-11-23T07:36:26.800Z,99.39
2022-11-23T07:38:53.689Z,99.29
2022-11-23T07:41:21.658Z,99.20
2022-11-23T07:44:09.687Z,98.89
2022-11-23T07:46:37.449Z,99.12
2022-11-23T07:49:04.365Z,98.92
2022-11-23T07:51:31.778Z,99.44
2022-11-23T07:53:58.589Z,99.33
2022-11-23T07:56:25.811Z,99.52
2022-11-23T07:58:52.943Z,99.34
2022-11-23T08:01:20.406Z,99.01
2022-11-23T08:03:48.519Z,98.59
2022-11-23T08:06:16.657Z,98.68
2022-11-23T08:08:44.236Z,99.09
2022-11-23T08:11:14.827Z,98.84
2022-11-23T08:13:41.786Z,98.97
2022-11-23T08:16:09.158Z,98.96
2022-11-23T08:18:36.298Z,98.80
2022-11-23T08:21:04.601Z,98.54
2022-11-23T08:23:31.540Z,98.38
2022-11-23T08:25:59.179Z,98.27
2022-11-23T08:28:26.596Z,98.46
2022-11-23T08:30:53.917Z,98.60
2022-11-23T08:33:20.838Z,98.76
2022-11-23T08:35:48.123Z,98.90
2022-11-23T08:38:15.611Z,98.71
2022-11-23T08:40:42.986Z,98.35
2022-11-23T08:43:10.283Z,97.81
2022-11-23T08:45:37.703Z,97.90
2022-11-23T08:48:05.373Z,97.76
2022-11-23T08:50:34.608Z,97.69
2022-11-23T08:53:01.745Z,98.03
2022-11-23T08:55:29.751Z,98.14
2022-11-23T08:57:58.417Z,98.21
2022-11-23T09:00:27.122Z,97.87
2022-11-23T09:02:54.494Z,97.99
2022-11-23T09:05:22.003Z,98.29
2022-11-23T09:07:49.086Z,98.18
2022-11-23T09:10:19.112Z,98.22
2022-11-23T09:12:47.348Z,98.38
2022-11-23T09:15:14.991Z,98.02
2022-11-23T09:17:42.171Z,97.55
2022-11-23T09:20:10.503Z,97.87
2022-11-23T09:22:37.585Z,98.03
2022-11-23T09:25:05.624Z,97.63
2022-11-23T09:27:33.015Z,98.00
2022-11-23T09:30:00.265Z,97.76
2022-11-23T09:32:27.824Z,97.54
2022-11-23T09:34:55.266Z,97.68
2022-11-23T09:37:22.232Z,98.22
2022-11-23T09:39:49.417Z,97.73
2022-11-23T09:42:58.175Z,97.28
2022-11-23T09:45:44.738Z,97.27
2022-11-23T09:48:37.684Z,97.24
2022-11-23T09:51:25.377Z,97.33
2022-11-23T09:53:59.940Z,97.41
2022-11-23T09:56:33.777Z,97.09
2022-11-23T09:59:10.578Z,97.11
2022-11-23T10:01:38.451Z,96.07
2022-11-23T10:04:07.234Z,96.11
2022-11-23T10:06:39.221Z,95.39
2022-11-23T10:09:19.160Z,95.04
2022-11-23T10:12:23.151Z,95.23
2022-11-23T10:14:59.609Z,94.98
2022-11-23T10:17:36.057Z,95.25
2022-11-23T10:20:28.047Z,95.06
2022-11-23T10:22:55.234Z,95.13
2022-11-23T10:25:24.419Z,95.75
2022-11-23T10:27:58.491Z,96.18
2022-11-23T10:30:25.859Z,95.90
2022-11-23T10:33:10.285Z,95.59
2022-11-23T10:35:38.402Z,95.37
2022-11-23T10:38:18.739Z,94.94
2022-11-23T10:41:01.993Z,94.87
2022-11-23T10:43:38.368Z,94.60
2022-11-23T10:46:34.924Z,94.51
2022-11-23T10:49:22.358Z,94.70
2022-11-23T10:51:57.738Z,94.43
2022-11-23T10:54:31.213Z,94.82
2022-11-23T10:57:00.851Z,95.02
2022-11-23T10:59:38.963Z,94.73
2022-11-23T11:02:21.694Z,95.09
2022-11-23T11:04:55.851Z,94.41
2022-11-23T11:07:30.632Z,94.31
2022-11-23T11:10:00.128Z,94.38
2022-11-23T11:12:29.514Z,93.48
2022-11-23T11:15:12.439Z,92.86
2022-11-23T11:17:59.343Z,93.02
2022-11-23T11:20:31.568Z,92.77
2022-11-23T11:23:05.269Z,92.85
2022-11-23T11:25:37.567Z,92.85
2022-11-23T11:28:18.455Z,93.05
2022-11-23T11:31:24.181Z,92.96
2022-11-23T11:34:25.138Z,92.95
2022-11-23T11:37:11.237Z,93.09
2022-11-23T11:40:19.590Z,93.33
2022-11-23T11:42:53.265Z,93.16
2022-11-23T11:45:28.707Z,93.39
2022-11-23T11:48:04.368Z,92.05
2022-11-23T11:50:38.380Z,91.91
2022-11-23T11:53:13.588Z,91.83
2022-11-23T11:56:11.888Z,92.17
2022-11-23T11:58:44.926Z,92.70
2022-11-23T12:01:26.193Z,91.73
2022-11-23T12:04:05.748Z,91.81
2022-11-23T12:06:54.600Z,92.03
2022-11-23T12:09:28.401Z,91.99
2022-11-23T12:11:55.786Z,91.65
2022-11-23T12:14:23.074Z,91.68
2022-11-23T12:20:16.444Z,91.92
2022-11-23T12:22:59.600Z,91.53
2022-11-23T12:25:37.387Z,91.81
2022-11-23T12:28:41.528Z,91.91
2022-11-23T12:31:18.406Z,92.17
2022-11-23T12:33:56.787Z,92.24
2022-11-23T12:36:57.348Z,92.14
2022-11-23T12:39:57.902Z,92.01
2022-11-23T12:42:38.985Z,92.68
2022-11-23T12:45:41.331Z,92.78
2022-11-23T12:48:11.646Z,92.59
2022-11-23T12:50:47.504Z,92.36
2022-11-23T12:53:39.529Z,92.28
2022-11-23T12:56:37.395Z,92.13
2022-11-23T12:59:08.472Z,92.51
2022-11-23T13:01:39.669Z,92.45
2022-11-23T13:04:10.160Z,92.62
2022-11-23T13:09:52.358Z,92.23
2022-11-23T13:12:40.167Z,92.07
2022-11-23T13:15:34.741Z,92.36
2022-11-23T13:18:11.423Z,92.39
2022-11-23T13:20:51.586Z,92.28
2022-11-23T13:23:21.729Z,92.73
2022-11-23T13:26:16.646Z,92.93
2022-11-23T13:28:45.101Z,92.67
2022-11-23T13:31:16.347Z,92.87
2022-11-23T13:33:45.752Z,92.99
2022-11-23T13:37:04.302Z,93.65
2022-11-23T13:40:01.008Z,93.59
2022-11-23T13:42:32.862Z,94.10
2022-11-23T13:45:21.692Z,93.90
2022-11-23T13:48:05.720Z,94.00
2022-11-23T13:50:33.566Z,94.14
2022-11-23T13:53:02.288Z,94.11
2022-11-23T13:55:38.255Z,93.92
2022-11-23T13:58:23.918Z,93.40
2022-11-23T14:00:59.163Z,93.16
2022-11-23T14:03:47.946Z,92.95
2022-11-23T14:06:24.128Z,93.35
2022-11-23T14:09:05.800Z,93.12
2022-11-23T14:11:42.218Z,93.34
2022-11-23T14:14:18.932Z,93.81
2022-11-23T14:17:17.795Z,93.90
2022-11-23T14:20:14.293Z,93.45
2022-11-23T14:22:56.647Z,93.35
2022-11-23T14:25:49.335Z,93.51
2022-11-23T14:28:22.631Z,93.89
2022-11-23T14:31:03.608Z,94.03
2022-11-23T14:34:12.883Z,93.98
2022-11-23T14:36:57.000Z,94.17
2022-11-23T14:39:42.455Z,94.52
2022-11-23T14:42:17.112Z,94.37
2022-11-23T14:44:45.028Z,94.09
2022-11-23T14:47:12.470Z,93.97
2022-11-23T14:49:50.952Z,94.03
2022-11-23T14:52:38.316Z,94.14
2022-11-23T14:55:06.609Z,94.06
2022-11-23T14:57:43.110Z,94.24
2022-11-23T15:00:35.558Z,94.68
2022-11-23T15:03:48.846Z,94.81
2022-11-23T15:06:13.508Z,94.89
2022-11-23T15:08:57.255Z,94.64
2022-11-23T15:11:29.075Z,94.56
2022-11-23T15:14:02.172Z,94.45
2022-11-23T15:16:30.606Z,94.48
2022-11-23T15:18:58.118Z,95.03
2022-11-23T15:21:28.252Z,95.00
2022-11-23T15:23:58.502Z,94.68
2022-11-23T15:29:36.156Z,94.72
2022-11-23T15:32:29.381Z,94.74
2022-11-23T15:34:55.057Z,94.84
2022-11-23T15:37:24.425Z,94.68
2022-11-23T15:39:53.852Z,94.99
2022-11-23T15:42:24.511Z,95.20
2022-11-23T15:44:54.741Z,95.25
2022-11-23T15:47:27.834Z,95.58
2022-11-23T15:50:02.100Z,95.40
2022-11-23T15:52:37.305Z,95.53
2022-11-23T15:55:12.820Z,95.30
2022-11-23T15:57:41.775Z,95.53
2022-11-23T16:00:21.222Z,95.92
2022-11-23T16:02:48.441Z,95.76
2022-11-23T16:05:19.882Z,95.68
2022-11-23T16:07:52.784Z,95.75
2022-11-23T16:10:30.752Z,96.10
2022-11-23T16:13:03.004Z,96.28
2022-11-23T16:15:38.605Z,96.62
2022-11-23T16:18:25.185Z,96.47
2022-11-23T16:20:56.895Z,96.67
2022-11-23T16:23:27.551Z,96.49
2022-11-23T16:26:01.665Z,96.39
2022-11-23T16:28:33.980Z,96.34
2022-11-23T16:31:01.909Z,96.25
2022-11-23T16:33:30.521Z,95.94
2022-11-23T16:35:57.998Z,95.75
2022-11-23T16:38:25.885Z,95.80
2022-11-23T16:40:53.164Z,95.78
2022-11-23T16:43:20.249Z,95.93
2022-11-23T16:45:51.297Z,96.38
2022-11-23T16:48:24.521Z,96.79
2022-11-23T16:50:56.115Z,97.00
2022-11-23T16:53:23.958Z,96.86
2022-11-23T16:55:55.726Z,96.74
2022-11-23T16:58:22.545Z,96.75
2022-11-23T17:00:50.216Z,96.37
2022-11-23T17:03:18.821Z,96.24
2022-11-23T17:05:47.840Z,96.15
2022-11-23T17:08:21.539Z,96.09
2022-11-23T17:10:51.418Z,96.22
2022-11-23T17:13:29.008Z,96.53
2022-11-23T17:15:56.579Z,96.82
2022-11-23T17:18:23.465Z,96.58
2022-11-23T17:20:50.938Z,96.57
2022-11-23T17:23:18.353Z,96.48
2022-11-23T17:25:45.684Z,96.73
2022-11-23T17:28:21.297Z,96.93
2022-11-23T17:30:49.013Z,96.74
2022-11-23T17:33:16.102Z,96.63
2022-11-23T17:35:43.523Z,96.49
2022-11-23T17:38:19.355Z,96.79
2022-11-23T17:40:46.703Z,96.56
2022-11-23T17:43:14.544Z,96.46
2022-11-23T17:45:43.840Z,96.46
2022-11-23T17:48:12.778Z,96.45
2022-11-23T17:50:40.076Z,96.59
2022-11-23T17:53:06.915Z,96.44
2022-11-23T17:55:34.145Z,96.53
2022-11-23T17:58:01.040Z,96.54
2022-11-23T18:00:29.781Z,96.67
2022-11-23T18:02:56.968Z,96.62
2022-11-23T18:05:24.486Z,96.79
2022-11-23T18:07:52.008Z,96.73
2022-11-23T18:10:19.427Z,96.54
2022-11-23T18:12:47.581Z,96.70
2022-11-23T18:15:15.403Z,96.67
2022-11-23T18:17:42.530Z,96.68
2022-11-23T18:20:10.394Z,96.83
2022-11-23T18:22:37.743Z,96.65
2022-11-23T18:25:05.244Z,96.70
2022-11-23T18:27:32.316Z,96.72
2022-11-23T18:29:59.595Z,96.69
2022-11-23T18:32:26.484Z,96.48
2022-11-23T18:34:53.695Z,96.67
2022-11-23T18:37:20.648Z,96.45
2022-11-23T18:39:47.833Z,96.52
2022-11-23T18:42:14.681Z,96.73
2022-11-23T18:44:41.787Z,97.08
2022-11-23T18:47:08.718Z,97.08
2022-11-23T18:49:36.213Z,97.08
2022-11-23T18:52:03.281Z,97.35
2022-11-23T18:54:30.595Z,97.47
2022-11-23T18:56:57.574Z,97.79
2022-11-23T19:02:13.244Z,97.14
2022-11-23T19:04:40.537Z,97.37
2022-11-23T19:07:07.663Z,97.26
2022-11-23T19:09:35.680Z,97.35
2022-11-23T19:12:02.920Z,97.30
2022-11-23T19:14:30.178Z,97.14
2022-11-23T19:16:57.849Z,97.54
2022-11-23T19:19:26.007Z,97.50
2022-11-23T19:21:53.096Z,97.32
2022-11-23T19:24:20.386Z,97.38
2022-11-23T19:26:47.483Z,97.43
2022-11-23T19:29:14.709Z,97.24
2022-11-23T19:31:41.771Z,96.77
2022-11-23T19:34:10.878Z,96.81
2022-11-23T19:36:37.831Z,96.85
2022-11-23T19:39:06.168Z,96.66
2022-11-23T19:41:33.213Z,96.78
2022-11-23T19:44:01.597Z,97.05
2022-11-23T19:46:30.662Z,97.08
2022-11-23T19:48:59.193Z,97.05
2022-11-23T19:51:27.162Z,97.21
2022-11-23T19:53:57.136Z,97.74
2022-11-23T19:56:26.087Z,97.70
2022-11-23T19:58:56.048Z,98.14
2022-11-23T20:01:24.457Z,97.64
2022-11-23T20:03:54.982Z,97.81
2022-11-23T20:06:27.158Z,97.53
2022-11-23T20:09:00.135Z,97.17
2022-11-23T20:11:30.368Z,97.36
2022-11-23T20:13:58.179Z,97.52
2022-11-23T20:16:27.487Z,97.30
2022-11-23T20:18:57.238Z,97.49
2022-11-23T20:21:24.773Z,97.65
2022-11-23T20:24:13.105Z,97.51
2022-11-23T20:26:41.900Z,97.50
2022-11-23T20:29:09.991Z,97.50
2022-11-23T20:31:37.595Z,97.53
2022-11-23T20:34:07.804Z,97.59
2022-11-23T20:36:38.171Z,97.29
2022-11-23T20:39:09.598Z,97.14
2022-11-23T20:41:37.653Z,97.51
2022-11-23T20:44:10.454Z,96.86
2022-11-23T20:47:00.516Z,96.95
2022-11-23T20:49:24.737Z,96.60
2022-11-23T20:51:52.170Z,96.83
2022-11-23T20:54:19.620Z,96.21
2022-11-23T20:56:46.588Z,95.94
2022-11-23T20:59:13.831Z,95.98
2022-11-23T21:01:41.008Z,96.02
2022-11-23T21:04:08.980Z,96.23
2022-11-23T21:06:39.427Z,96.36
2022-11-23T21:09:11.310Z,96.67
2022-11-23T21:11:57.405Z,97.17
2022-11-23T21:14:30.373Z,96.78
2022-11-23T21:16:59.601Z,96.50
2022-11-23T21:19:37.784Z,96.48
2022-11-23T21:22:13.377Z,96.93
2022-11-23T21:24:41.085Z,96.56
2022-11-23T21:27:12.144Z,96.78
2022-11-23T21:29:39.688Z,97.29
2022-11-23T21:32:06.597Z,97.10
2022-11-23T21:34:34.286Z,96.76
2022-11-23T21:37:01.870Z,96.70
2022-11-23T21:39:30.988Z,96.92
2022-11-23T21:41:58.051Z,97.05
2022-11-23T21:44:25.168Z,97.00
2022-11-23T21:46:52.322Z,96.97
2022-11-23T21:49:19.610Z,96.91
2022-11-23T21:51:46.755Z,96.47
2022-11-23T21:54:15.996Z,97.05
2022-11-23T21:56:45.075Z,96.98
2022-11-23T21:59:12.889Z,96.92
2022-11-23T22:01:40.757Z,96.97
2022-11-23T22:04:11.500Z,97.20
2022-11-23T22:06:40.189Z,96.95
2022-11-23T22:09:09.681Z,97.04
2022-11-23T22:11:39.598Z,96.96
2022-11-23T22:14:09.759Z,97.03
2022-11-23T22:16:39.319Z,97.19
2022-11-23T22:19:07.093Z,97.02
2022-11-23T22:21:36.701Z,96.90
2022-11-23T22:24:05.484Z,96.26
2022-11-23T22:26:32.955Z,96.42
2022-11-23T22:29:02.626Z,96.26
2022-11-23T22:31:33.142Z,96.45
2022-11-23T22:34:02.225Z,96.24
2022-11-23T22:36:30.083Z,96.61
2022-11-23T22:39:01.885Z,96.68
2022-11-23T22:41:30.773Z,96.68
2022-11-23T22:43:58.006Z,96.51
2022-11-23T22:46:25.764Z,96.66
2022-11-23T22:48:54.090Z,96.47
2022-11-23T22:51:23.639Z,96.25
2022-11-23T22:53:56.098Z,96.45
2022-11-23T22:56:23.093Z,96.63
2022-11-23T22:58:50.473Z,96.83
2022-11-23T23:01:19.622Z,97.01
2022-11-23T23:03:47.714Z,97.19
2022-11-23T23:06:20.233Z,97.07
2022-11-23T23:08:52.221Z,96.85
2022-11-23T23:11:19.204Z,97.02
2022-11-23T23:13:46.900Z,96.94
2022-11-23T23:16:14.530Z,97.04
2022-11-23T23:18:42.751Z,97.11
2022-11-23T23:21:15.155Z,97.09
2022-11-23T23:23:44.741Z,97.05
2022-11-23T23:26:13.702Z,97.15
2022-11-23T23:28:41.058Z,97.52
2022-11-23T23:31:10.985Z,97.39
2022-11-23T23:33:38.739Z,97.34
2022-11-23T23:36:11.745Z,97.76
2022-11-23T23:38:40.663Z,97.70
2022-11-23T23:41:09.066Z,97.76
2022-11-23T23:43:36.938Z,97.88
2022-11-23T23:46:09.431Z,97.70
2022-11-23T23:48:38.613Z,97.57
2022-11-23T23:51:16.332Z,97.75
2022-11-23T23:53:45.250Z,97.91
2022-11-23T23:56:15.118Z,97.95
2022-11-23T23:58:42.937Z,97.55
